sensor_id;sensor_type;location;lat;lon;timestamp;P1;durP1;ratioP1;P2;durP2;ratioP2
74168;SDS011;62523;53.336;83.690;2023-05-07T00:02:26;25.48;;;14.20;;
74168;SDS011;62523;53.336;83.690;2023-05-07T00:07:28;26.95;;;12.95;;
74168;SDS011;62523;53.336;83.690;2023-05-07T00:12:31;23.00;;;11.27;;
74168;SDS011;62523;53.336;83.690;2023-05-07T00:17:35;24.45;;;13.38;;
74168;SDS011;62523;53.336;83.690;2023-05-07T00:22:38;19.83;;;12.13;;
74168;SDS011;62523;53.336;83.690;2023-05-07T00:27:40;24.70;;;14.02;;
74168;SDS011;62523;53.336;83.690;2023-05-07T00:32:42;31.38;;;14.00;;
74168;SDS011;62523;53.336;83.690;2023-05-07T00:37:47;22.58;;;14.15;;
74168;SDS011;62523;53.336;83.690;2023-05-07T00:42:50;23.40;;;12.10;;
74168;SDS011;62523;53.336;83.690;2023-05-07T00:48:01;19.48;;;13.25;;
74168;SDS011;62523;53.336;83.690;2023-05-07T00:53:05;21.30;;;12.80;;
74168;SDS011;62523;53.336;83.690;2023-05-07T00:58:09;28.40;;;12.95;;
74168;SDS011;62523;53.336;83.690;2023-05-07T01:03:11;32.30;;;13.07;;
74168;SDS011;62523;53.336;83.690;2023-05-07T01:08:13;28.25;;;14.32;;
74168;SDS011;62523;53.336;83.690;2023-05-07T01:13:17;23.87;;;15.03;;
74168;SDS011;62523;53.336;83.690;2023-05-07T01:18:21;25.08;;;12.90;;
74168;SDS011;62523;53.336;83.690;2023-05-07T01:23:24;26.05;;;13.07;;
74168;SDS011;62523;53.336;83.690;2023-05-07T01:28:27;29.52;;;15.07;;
74168;SDS011;62523;53.336;83.690;2023-05-07T01:33:33;26.25;;;13.25;;
74168;SDS011;62523;53.336;83.690;2023-05-07T01:38:38;37.45;;;14.90;;
74168;SDS011;62523;53.336;83.690;2023-05-07T01:43:42;26.50;;;12.07;;
74168;SDS011;62523;53.336;83.690;2023-05-07T01:48:45;28.35;;;15.40;;
74168;SDS011;62523;53.336;83.690;2023-05-07T01:53:48;30.38;;;13.23;;
74168;SDS011;62523;53.336;83.690;2023-05-07T01:58:55;26.30;;;13.55;;
74168;SDS011;62523;53.336;83.690;2023-05-07T02:03:58;33.80;;;12.00;;
74168;SDS011;62523;53.336;83.690;2023-05-07T02:09:03;32.50;;;13.73;;
74168;SDS011;62523;53.336;83.690;2023-05-07T02:14:06;23.60;;;11.75;;
74168;SDS011;62523;53.336;83.690;2023-05-07T02:19:09;17.88;;;12.40;;
74168;SDS011;62523;53.336;83.690;2023-05-07T02:24:11;28.67;;;12.10;;
74168;SDS011;62523;53.336;83.690;2023-05-07T02:29:13;22.58;;;14.60;;
74168;SDS011;62523;53.336;83.690;2023-05-07T02:34:16;18.55;;;12.88;;
74168;SDS011;62523;53.336;83.690;2023-05-07T02:39:19;35.45;;;12.10;;
74168;SDS011;62523;53.336;83.690;2023-05-07T02:44:22;20.57;;;13.10;;
74168;SDS011;62523;53.336;83.690;2023-05-07T02:49:26;31.92;;;13.93;;
74168;SDS011;62523;53.336;83.690;2023-05-07T02:54:28;29.45;;;13.82;;
74168;SDS011;62523;53.336;83.690;2023-05-07T02:59:31;33.30;;;13.52;;
74168;SDS011;62523;53.336;83.690;2023-05-07T03:04:34;24.20;;;13.07;;
74168;SDS011;62523;53.336;83.690;2023-05-07T03:09:37;27.52;;;14.38;;
74168;SDS011;62523;53.336;83.690;2023-05-07T03:14:39;40.60;;;15.05;;
74168;SDS011;62523;53.336;83.690;2023-05-07T03:19:41;31.98;;;11.63;;
74168;SDS011;62523;53.336;83.690;2023-05-07T03:24:43;21.67;;;13.00;;
74168;SDS011;62523;53.336;83.690;2023-05-07T03:29:46;31.70;;;14.00;;
74168;SDS011;62523;53.336;83.690;2023-05-07T03:34:48;30.90;;;15.30;;
74168;SDS011;62523;53.336;83.690;2023-05-07T03:39:50;30.08;;;12.65;;
74168;SDS011;62523;53.336;83.690;2023-05-07T03:44:53;23.25;;;12.75;;
74168;SDS011;62523;53.336;83.690;2023-05-07T03:49:56;25.97;;;11.90;;
74168;SDS011;62523;53.336;83.690;2023-05-07T03:55:00;37.35;;;13.93;;
74168;SDS011;62523;53.336;83.690;2023-05-07T04:00:05;33.90;;;13.70;;
74168;SDS011;62523;53.336;83.690;2023-05-07T04:05:29;27.47;;;13.48;;
74168;SDS011;62523;53.336;83.690;2023-05-07T04:10:35;19.30;;;14.07;;
74168;SDS011;62523;53.336;83.690;2023-05-07T04:15:42;28.25;;;14.00;;
74168;SDS011;62523;53.336;83.690;2023-05-07T04:20:47;32.03;;;13.98;;
74168;SDS011;62523;53.336;83.690;2023-05-07T04:25:51;24.20;;;13.35;;
74168;SDS011;62523;53.336;83.690;2023-05-07T04:31:15;29.90;;;16.05;;
74168;SDS011;62523;53.336;83.690;2023-05-07T04:36:19;23.48;;;15.82;;
74168;SDS011;62523;53.336;83.690;2023-05-07T04:41:30;69.78;;;20.17;;
74168;SDS011;62523;53.336;83.690;2023-05-07T04:46:33;35.63;;;17.90;;
74168;SDS011;62523;53.336;83.690;2023-05-07T04:51:35;37.67;;;17.30;;
74168;SDS011;62523;53.336;83.690;2023-05-07T04:56:38;50.65;;;18.77;;
74168;SDS011;62523;53.336;83.690;2023-05-07T05:01:40;33.17;;;17.13;;
74168;SDS011;62523;53.336;83.690;2023-05-07T05:06:42;30.67;;;16.50;;
74168;SDS011;62523;53.336;83.690;2023-05-07T05:11:46;53.03;;;17.40;;
74168;SDS011;62523;53.336;83.690;2023-05-07T05:16:48;42.55;;;17.70;;
74168;SDS011;62523;53.336;83.690;2023-05-07T05:21:50;29.38;;;14.27;;
74168;SDS011;62523;53.336;83.690;2023-05-07T05:26:53;44.67;;;19.08;;
74168;SDS011;62523;53.336;83.690;2023-05-07T05:31:56;17.02;;;13.32;;
74168;SDS011;62523;53.336;83.690;2023-05-07T05:36:59;33.85;;;15.88;;
74168;SDS011;62523;53.336;83.690;2023-05-07T05:42:01;31.92;;;15.15;;
74168;SDS011;62523;53.336;83.690;2023-05-07T05:47:05;39.63;;;16.80;;
74168;SDS011;62523;53.336;83.690;2023-05-07T05:52:07;51.47;;;16.92;;
74168;SDS011;62523;53.336;83.690;2023-05-07T05:57:09;28.03;;;16.67;;
74168;SDS011;62523;53.336;83.690;2023-05-07T06:02:14;34.50;;;16.88;;
74168;SDS011;62523;53.336;83.690;2023-05-07T06:07:16;33.70;;;17.05;;
74168;SDS011;62523;53.336;83.690;2023-05-07T06:12:19;67.63;;;25.50;;
74168;SDS011;62523;53.336;83.690;2023-05-07T06:17:24;37.25;;;20.80;;
74168;SDS011;62523;53.336;83.690;2023-05-07T06:22:32;44.70;;;24.23;;
74168;SDS011;62523;53.336;83.690;2023-05-07T06:27:35;27.65;;;19.58;;
74168;SDS011;62523;53.336;83.690;2023-05-07T06:32:37;42.83;;;25.65;;
74168;SDS011;62523;53.336;83.690;2023-05-07T06:37:41;45.33;;;26.48;;
74168;SDS011;62523;53.336;83.690;2023-05-07T06:42:49;41.65;;;26.23;;
74168;SDS011;62523;53.336;83.690;2023-05-07T06:48:02;42.37;;;27.63;;
74168;SDS011;62523;53.336;83.690;2023-05-07T06:53:10;44.72;;;28.33;;
74168;SDS011;62523;53.336;83.690;2023-05-07T06:58:12;39.45;;;27.15;;
74168;SDS011;62523;53.336;83.690;2023-05-07T07:03:16;39.97;;;27.50;;
74168;SDS011;62523;53.336;83.690;2023-05-07T07:08:26;37.07;;;23.20;;
74168;SDS011;62523;53.336;83.690;2023-05-07T07:13:29;41.20;;;26.58;;
74168;SDS011;62523;53.336;83.690;2023-05-07T07:18:33;33.65;;;26.63;;
74168;SDS011;62523;53.336;83.690;2023-05-07T07:23:35;48.30;;;28.27;;
74168;SDS011;62523;53.336;83.690;2023-05-07T07:28:42;43.05;;;30.25;;
74168;SDS011;62523;53.336;83.690;2023-05-07T07:33:45;47.40;;;26.42;;
74168;SDS011;62523;53.336;83.690;2023-05-07T07:38:48;62.20;;;33.67;;
74168;SDS011;62523;53.336;83.690;2023-05-07T07:43:52;35.53;;;26.35;;
74168;SDS011;62523;53.336;83.690;2023-05-07T07:48:56;31.02;;;23.45;;
74168;SDS011;62523;53.336;83.690;2023-05-07T07:54:00;31.35;;;25.08;;
74168;SDS011;62523;53.336;83.690;2023-05-07T07:59:05;31.23;;;22.75;;
74168;SDS011;62523;53.336;83.690;2023-05-07T08:04:09;39.15;;;24.73;;
74168;SDS011;62523;53.336;83.690;2023-05-07T08:09:15;50.90;;;24.20;;
74168;SDS011;62523;53.336;83.690;2023-05-07T08:14:18;37.22;;;23.48;;
74168;SDS011;62523;53.336;83.690;2023-05-07T08:19:23;35.50;;;24.15;;
74168;SDS011;62523;53.336;83.690;2023-05-07T08:24:26;28.08;;;22.58;;
74168;SDS011;62523;53.336;83.690;2023-05-07T08:29:29;38.72;;;23.02;;
74168;SDS011;62523;53.336;83.690;2023-05-07T08:34:31;36.75;;;22.38;;
74168;SDS011;62523;53.336;83.690;2023-05-07T08:39:37;23.40;;;18.58;;
74168;SDS011;62523;53.336;83.690;2023-05-07T08:44:46;25.13;;;21.73;;
74168;SDS011;62523;53.336;83.690;2023-05-07T08:49:53;34.40;;;19.40;;
74168;SDS011;62523;53.336;83.690;2023-05-07T08:54:57;33.15;;;20.63;;
74168;SDS011;62523;53.336;83.690;2023-05-07T09:00:01;41.00;;;20.25;;
74168;SDS011;62523;53.336;83.690;2023-05-07T09:05:06;25.05;;;19.05;;
74168;SDS011;62523;53.336;83.690;2023-05-07T09:10:13;26.98;;;21.98;;
74168;SDS011;62523;53.336;83.690;2023-05-07T09:15:18;21.63;;;17.50;;
74168;SDS011;62523;53.336;83.690;2023-05-07T09:20:30;33.80;;;18.23;;
74168;SDS011;62523;53.336;83.690;2023-05-07T09:25:34;33.40;;;18.00;;
74168;SDS011;62523;53.336;83.690;2023-05-07T09:30:47;19.52;;;14.75;;
74168;SDS011;62523;53.336;83.690;2023-05-07T09:35:51;26.85;;;17.55;;
74168;SDS011;62523;53.336;83.690;2023-05-07T09:41:15;26.00;;;18.15;;
74168;SDS011;62523;53.336;83.690;2023-05-07T09:46:33;28.38;;;18.52;;
74168;SDS011;62523;53.336;83.690;2023-05-07T09:51:50;23.67;;;18.27;;
74168;SDS011;62523;53.336;83.690;2023-05-07T09:56:56;28.42;;;19.88;;
74168;SDS011;62523;53.336;83.690;2023-05-07T10:02:01;25.00;;;17.70;;
74168;SDS011;62523;53.336;83.690;2023-05-07T10:07:06;24.35;;;19.48;;
74168;SDS011;62523;53.336;83.690;2023-05-07T10:12:11;30.90;;;20.15;;
74168;SDS011;62523;53.336;83.690;2023-05-07T10:17:13;26.40;;;19.08;;
74168;SDS011;62523;53.336;83.690;2023-05-07T10:22:21;24.77;;;17.63;;
74168;SDS011;62523;53.336;83.690;2023-05-07T10:27:28;33.80;;;17.83;;
74168;SDS011;62523;53.336;83.690;2023-05-07T10:32:39;29.60;;;19.73;;
74168;SDS011;62523;53.336;83.690;2023-05-07T10:37:48;26.70;;;21.55;;
74168;SDS011;62523;53.336;83.690;2023-05-07T10:42:53;33.08;;;20.10;;
74168;SDS011;62523;53.336;83.690;2023-05-07T10:48:13;37.80;;;24.60;;
74168;SDS011;62523;53.336;83.690;2023-05-07T10:58:35;22.97;;;17.13;;
74168;SDS011;62523;53.336;83.690;2023-05-07T11:04:14;26.83;;;21.00;;
74168;SDS011;62523;53.336;83.690;2023-05-07T11:15:11;33.88;;;20.77;;
74168;SDS011;62523;53.336;83.690;2023-05-07T11:20:17;46.20;;;22.93;;
74168;SDS011;62523;53.336;83.690;2023-05-07T11:25:28;34.85;;;19.55;;
74168;SDS011;62523;53.336;83.690;2023-05-07T11:31:03;28.73;;;21.45;;
74168;SDS011;62523;53.336;83.690;2023-05-07T11:36:07;31.08;;;22.02;;
74168;SDS011;62523;53.336;83.690;2023-05-07T11:41:16;39.60;;;27.10;;
74168;SDS011;62523;53.336;83.690;2023-05-07T11:46:18;33.45;;;22.02;;
74168;SDS011;62523;53.336;83.690;2023-05-07T11:51:22;30.50;;;23.35;;
74168;SDS011;62523;53.336;83.690;2023-05-07T11:56:27;22.20;;;18.83;;
74168;SDS011;62523;53.336;83.690;2023-05-07T12:01:29;33.28;;;22.25;;
74168;SDS011;62523;53.336;83.690;2023-05-07T12:06:35;32.55;;;19.98;;
74168;SDS011;62523;53.336;83.690;2023-05-07T12:11:39;45.22;;;22.10;;
74168;SDS011;62523;53.336;83.690;2023-05-07T12:16:41;35.50;;;20.70;;
74168;SDS011;62523;53.336;83.690;2023-05-07T12:21:43;32.30;;;21.98;;
74168;SDS011;62523;53.336;83.690;2023-05-07T12:26:46;31.92;;;19.38;;
74168;SDS011;62523;53.336;83.690;2023-05-07T12:31:49;36.10;;;21.10;;
74168;SDS011;62523;53.336;83.690;2023-05-07T12:36:52;38.33;;;21.90;;
74168;SDS011;62523;53.336;83.690;2023-05-07T12:41:55;36.72;;;23.02;;
74168;SDS011;62523;53.336;83.690;2023-05-07T12:47:02;35.88;;;22.27;;
74168;SDS011;62523;53.336;83.690;2023-05-07T12:52:05;36.63;;;21.43;;
74168;SDS011;62523;53.336;83.690;2023-05-07T12:57:08;33.38;;;21.05;;
74168;SDS011;62523;53.336;83.690;2023-05-07T13:02:11;43.45;;;22.35;;
74168;SDS011;62523;53.336;83.690;2023-05-07T13:07:15;32.50;;;21.50;;
74168;SDS011;62523;53.336;83.690;2023-05-07T13:12:17;40.80;;;25.23;;
74168;SDS011;62523;53.336;83.690;2023-05-07T13:17:19;40.47;;;24.40;;
74168;SDS011;62523;53.336;83.690;2023-05-07T13:22:21;46.92;;;26.48;;
74168;SDS011;62523;53.336;83.690;2023-05-07T13:27:23;37.67;;;25.90;;
74168;SDS011;62523;53.336;83.690;2023-05-07T13:32:26;43.60;;;27.30;;
74168;SDS011;62523;53.336;83.690;2023-05-07T13:37:28;47.13;;;26.23;;
74168;SDS011;62523;53.336;83.690;2023-05-07T13:42:30;43.53;;;27.08;;
74168;SDS011;62523;53.336;83.690;2023-05-07T13:47:32;36.13;;;25.83;;
74168;SDS011;62523;53.336;83.690;2023-05-07T13:52:38;52.90;;;28.77;;
74168;SDS011;62523;53.336;83.690;2023-05-07T13:57:41;67.95;;;33.53;;
74168;SDS011;62523;53.336;83.690;2023-05-07T14:02:44;48.70;;;33.17;;
74168;SDS011;62523;53.336;83.690;2023-05-07T14:07:46;50.70;;;29.70;;
74168;SDS011;62523;53.336;83.690;2023-05-07T14:12:50;41.37;;;29.03;;
74168;SDS011;62523;53.336;83.690;2023-05-07T14:17:52;43.38;;;29.60;;
74168;SDS011;62523;53.336;83.690;2023-05-07T14:22:54;53.63;;;31.52;;
74168;SDS011;62523;53.336;83.690;2023-05-07T14:27:56;54.95;;;31.90;;
74168;SDS011;62523;53.336;83.690;2023-05-07T14:32:58;55.47;;;31.65;;
74168;SDS011;62523;53.336;83.690;2023-05-07T14:38:00;64.63;;;33.15;;
74168;SDS011;62523;53.336;83.690;2023-05-07T14:43:03;55.55;;;34.83;;
74168;SDS011;62523;53.336;83.690;2023-05-07T14:48:05;53.47;;;34.00;;
74168;SDS011;62523;53.336;83.690;2023-05-07T14:53:09;64.57;;;32.28;;
74168;SDS011;62523;53.336;83.690;2023-05-07T14:58:12;52.75;;;34.58;;
74168;SDS011;62523;53.336;83.690;2023-05-07T15:03:14;68.57;;;35.03;;
74168;SDS011;62523;53.336;83.690;2023-05-07T15:08:18;55.25;;;33.83;;
74168;SDS011;62523;53.336;83.690;2023-05-07T15:13:21;56.47;;;33.43;;
74168;SDS011;62523;53.336;83.690;2023-05-07T15:18:23;49.20;;;32.33;;
74168;SDS011;62523;53.336;83.690;2023-05-07T15:23:25;72.35;;;35.10;;
74168;SDS011;62523;53.336;83.690;2023-05-07T15:28:31;68.38;;;33.65;;
74168;SDS011;62523;53.336;83.690;2023-05-07T15:33:34;69.88;;;36.78;;
74168;SDS011;62523;53.336;83.690;2023-05-07T15:38:36;62.92;;;36.78;;
74168;SDS011;62523;53.336;83.690;2023-05-07T15:43:47;54.65;;;37.67;;
74168;SDS011;62523;53.336;83.690;2023-05-07T15:48:52;64.03;;;33.43;;
74168;SDS011;62523;53.336;83.690;2023-05-07T15:53:55;62.30;;;36.37;;
74168;SDS011;62523;53.336;83.690;2023-05-07T15:59:00;55.10;;;32.30;;
74168;SDS011;62523;53.336;83.690;2023-05-07T16:04:03;45.05;;;32.55;;
74168;SDS011;62523;53.336;83.690;2023-05-07T16:09:05;43.60;;;31.65;;
74168;SDS011;62523;53.336;83.690;2023-05-07T16:14:10;52.40;;;33.90;;
74168;SDS011;62523;53.336;83.690;2023-05-07T16:19:15;51.35;;;31.38;;
74168;SDS011;62523;53.336;83.690;2023-05-07T16:24:18;44.03;;;30.23;;
74168;SDS011;62523;53.336;83.690;2023-05-07T16:29:20;39.55;;;29.55;;
74168;SDS011;62523;53.336;83.690;2023-05-07T16:34:23;47.90;;;28.52;;
74168;SDS011;62523;53.336;83.690;2023-05-07T16:39:26;41.17;;;29.25;;
74168;SDS011;62523;53.336;83.690;2023-05-07T16:44:28;53.42;;;28.58;;
74168;SDS011;62523;53.336;83.690;2023-05-07T16:49:31;52.03;;;29.20;;
74168;SDS011;62523;53.336;83.690;2023-05-07T16:54:34;40.13;;;29.02;;
74168;SDS011;62523;53.336;83.690;2023-05-07T16:59:37;36.75;;;25.00;;
74168;SDS011;62523;53.336;83.690;2023-05-07T17:04:40;42.70;;;26.45;;
74168;SDS011;62523;53.336;83.690;2023-05-07T17:09:45;40.83;;;25.70;;
74168;SDS011;62523;53.336;83.690;2023-05-07T17:14:48;36.50;;;23.53;;
74168;SDS011;62523;53.336;83.690;2023-05-07T17:19:50;35.35;;;23.33;;
74168;SDS011;62523;53.336;83.690;2023-05-07T17:24:56;43.05;;;25.55;;
74168;SDS011;62523;53.336;83.690;2023-05-07T17:29:59;32.03;;;21.58;;
74168;SDS011;62523;53.336;83.690;2023-05-07T17:35:02;47.58;;;24.15;;
74168;SDS011;62523;53.336;83.690;2023-05-07T17:40:07;36.33;;;23.27;;
74168;SDS011;62523;53.336;83.690;2023-05-07T17:45:10;42.83;;;24.48;;
74168;SDS011;62523;53.336;83.690;2023-05-07T17:50:13;31.70;;;22.35;;
74168;SDS011;62523;53.336;83.690;2023-05-07T17:55:15;62.80;;;25.92;;
74168;SDS011;62523;53.336;83.690;2023-05-07T18:00:28;40.16;;;25.61;;
74168;SDS011;62523;53.336;83.690;2023-05-07T18:05:30;42.34;;;21.86;;
74168;SDS011;62523;53.336;83.690;2023-05-07T18:10:32;44.85;;;24.80;;
74168;SDS011;62523;53.336;83.690;2023-05-07T18:15:35;49.07;;;26.83;;
74168;SDS011;62523;53.336;83.690;2023-05-07T18:20:37;36.57;;;24.50;;
74168;SDS011;62523;53.336;83.690;2023-05-07T18:25:39;31.77;;;21.13;;
74168;SDS011;62523;53.336;83.690;2023-05-07T18:30:42;37.20;;;25.60;;
74168;SDS011;62523;53.336;83.690;2023-05-07T18:35:44;35.92;;;24.08;;
74168;SDS011;62523;53.336;83.690;2023-05-07T18:40:47;40.30;;;25.13;;
74168;SDS011;62523;53.336;83.690;2023-05-07T18:45:51;36.45;;;26.38;;
74168;SDS011;62523;53.336;83.690;2023-05-07T18:50:53;52.95;;;26.02;;
74168;SDS011;62523;53.336;83.690;2023-05-07T18:55:56;52.63;;;27.23;;
74168;SDS011;62523;53.336;83.690;2023-05-07T19:00:59;38.95;;;26.67;;
74168;SDS011;62523;53.336;83.690;2023-05-07T19:06:03;54.88;;;25.00;;
74168;SDS011;62523;53.336;83.690;2023-05-07T19:11:06;41.03;;;26.48;;
74168;SDS011;62523;53.336;83.690;2023-05-07T19:16:09;52.83;;;23.23;;
74168;SDS011;62523;53.336;83.690;2023-05-07T19:21:13;30.73;;;23.20;;
74168;SDS011;62523;53.336;83.690;2023-05-07T19:26:16;48.50;;;24.02;;
74168;SDS011;62523;53.336;83.690;2023-05-07T19:31:21;49.42;;;23.60;;
74168;SDS011;62523;53.336;83.690;2023-05-07T19:36:24;42.92;;;24.30;;
74168;SDS011;62523;53.336;83.690;2023-05-07T19:41:27;38.72;;;24.05;;
74168;SDS011;62523;53.336;83.690;2023-05-07T19:46:29;39.30;;;23.50;;
74168;SDS011;62523;53.336;83.690;2023-05-07T19:51:31;39.70;;;23.17;;
74168;SDS011;62523;53.336;83.690;2023-05-07T19:56:34;34.80;;;22.65;;
74168;SDS011;62523;53.336;83.690;2023-05-07T20:01:36;37.40;;;25.42;;
74168;SDS011;62523;53.336;83.690;2023-05-07T20:06:39;43.22;;;23.17;;
74168;SDS011;62523;53.336;83.690;2023-05-07T20:11:41;40.63;;;24.47;;
74168;SDS011;62523;53.336;83.690;2023-05-07T20:16:43;48.13;;;24.27;;
74168;SDS011;62523;53.336;83.690;2023-05-07T20:21:46;37.15;;;22.77;;
74168;SDS011;62523;53.336;83.690;2023-05-07T20:26:50;41.65;;;24.85;;
74168;SDS011;62523;53.336;83.690;2023-05-07T20:31:52;45.08;;;27.40;;
74168;SDS011;62523;53.336;83.690;2023-05-07T20:36:54;31.63;;;24.17;;
74168;SDS011;62523;53.336;83.690;2023-05-07T20:41:56;44.63;;;25.50;;
74168;SDS011;62523;53.336;83.690;2023-05-07T20:47:00;39.05;;;25.40;;
74168;SDS011;62523;53.336;83.690;2023-05-07T20:52:03;59.42;;;30.88;;
74168;SDS011;62523;53.336;83.690;2023-05-07T20:57:06;64.35;;;26.05;;
74168;SDS011;62523;53.336;83.690;2023-05-07T21:02:08;51.67;;;26.52;;
74168;SDS011;62523;53.336;83.690;2023-05-07T21:07:11;75.55;;;31.90;;
74168;SDS011;62523;53.336;83.690;2023-05-07T21:12:13;71.95;;;30.45;;
74168;SDS011;62523;53.336;83.690;2023-05-07T21:17:15;51.72;;;27.05;;
74168;SDS011;62523;53.336;83.690;2023-05-07T21:22:17;48.60;;;28.23;;
74168;SDS011;62523;53.336;83.690;2023-05-07T21:27:19;46.88;;;27.25;;
74168;SDS011;62523;53.336;83.690;2023-05-07T21:32:21;62.97;;;30.80;;
74168;SDS011;62523;53.336;83.690;2023-05-07T21:37:24;60.58;;;32.05;;
74168;SDS011;62523;53.336;83.690;2023-05-07T21:42:26;66.25;;;34.10;;
74168;SDS011;62523;53.336;83.690;2023-05-07T21:47:28;60.47;;;29.50;;
74168;SDS011;62523;53.336;83.690;2023-05-07T21:52:30;53.97;;;30.57;;
74168;SDS011;62523;53.336;83.690;2023-05-07T21:57:32;48.05;;;27.85;;
74168;SDS011;62523;53.336;83.690;2023-05-07T22:02:36;47.25;;;29.08;;
74168;SDS011;62523;53.336;83.690;2023-05-07T22:07:38;39.55;;;27.92;;
74168;SDS011;62523;53.336;83.690;2023-05-07T22:12:40;67.00;;;33.03;;
74168;SDS011;62523;53.336;83.690;2023-05-07T22:17:42;40.43;;;24.80;;
74168;SDS011;62523;53.336;83.690;2023-05-07T22:22:48;38.33;;;26.63;;
74168;SDS011;62523;53.336;83.690;2023-05-07T22:27:52;55.42;;;28.13;;
74168;SDS011;62523;53.336;83.690;2023-05-07T22:32:54;39.78;;;27.70;;
74168;SDS011;62523;53.336;83.690;2023-05-07T22:37:56;61.25;;;28.98;;
74168;SDS011;62523;53.336;83.690;2023-05-07T22:42:58;47.88;;;27.77;;
74168;SDS011;62523;53.336;83.690;2023-05-07T22:48:01;88.88;;;38.08;;
74168;SDS011;62523;53.336;83.690;2023-05-07T22:53:03;76.03;;;40.65;;
74168;SDS011;62523;53.336;83.690;2023-05-07T22:58:06;79.55;;;41.60;;
74168;SDS011;62523;53.336;83.690;2023-05-07T23:03:08;81.93;;;40.38;;
74168;SDS011;62523;53.336;83.690;2023-05-07T23:08:10;50.22;;;31.17;;
74168;SDS011;62523;53.336;83.690;2023-05-07T23:13:13;75.15;;;33.33;;
74168;SDS011;62523;53.336;83.690;2023-05-07T23:18:17;102.25;;;42.53;;
74168;SDS011;62523;53.336;83.690;2023-05-07T23:23:19;49.72;;;28.98;;
74168;SDS011;62523;53.336;83.690;2023-05-07T23:28:22;78.97;;;38.17;;
74168;SDS011;62523;53.336;83.690;2023-05-07T23:33:24;56.10;;;33.28;;
74168;SDS011;62523;53.336;83.690;2023-05-07T23:38:26;122.60;;;44.78;;
74168;SDS011;62523;53.336;83.690;2023-05-07T23:43:28;45.27;;;27.47;;
74168;SDS011;62523;53.336;83.690;2023-05-07T23:48:30;106.77;;;44.30;;
74168;SDS011;62523;53.336;83.690;2023-05-07T23:53:32;58.92;;;30.23;;
74168;SDS011;62523;53.336;83.690;2023-05-07T23:58:34;65.55;;;34.63;;
